sensor_id;sensor_type;location;lat;lon;timestamp;temperature;humidity
16402;DHT22;8310;44.626;11.176;2022-08-01T00:02:22;27.50;39.80
16402;DHT22;8310;44.626;11.176;2022-08-01T00:04:53;27.50;39.90
16402;DHT22;8310;44.626;11.176;2022-08-01T00:07:21;27.40;40.50
16402;DHT22;8310;44.626;11.176;2022-08-01T00:10:01;27.40;39.80
16402;DHT22;8310;44.626;11.176;2022-08-01T00:12:30;27.40;39.80
16402;DHT22;8310;44.626;11.176;2022-08-01T00:14:58;27.40;39.80
16402;DHT22;8310;44.626;11.176;2022-08-01T00:17:26;27.40;39.90
16402;DHT22;8310;44.626;11.176;2022-08-01T00:19:56;27.40;39.80
16402;DHT22;8310;44.626;11.176;2022-08-01T00:22:25;27.40;39.90
16402;DHT22;8310;44.626;11.176;2022-08-01T00:24:52;27.40;39.80
16402;DHT22;8310;44.626;11.176;2022-08-01T00:27:20;27.30;40.00
16402;DHT22;8310;44.626;11.176;2022-08-01T00:29:48;27.30;39.90
16402;DHT22;8310;44.626;11.176;2022-08-01T00:32:17;27.30;39.80
16402;DHT22;8310;44.626;11.176;2022-08-01T00:34:44;27.20;40.30
16402;DHT22;8310;44.626;11.176;2022-08-01T00:37:13;27.20;39.80
16402;DHT22;8310;44.626;11.176;2022-08-01T00:39:41;27.20;39.80
16402;DHT22;8310;44.626;11.176;2022-08-01T00:42:10;27.10;39.80
16402;DHT22;8310;44.626;11.176;2022-08-01T00:44:38;27.10;39.80
16402;DHT22;8310;44.626;11.176;2022-08-01T00:47:11;27.10;39.90
16402;DHT22;8310;44.626;11.176;2022-08-01T00:49:50;27.10;40.00
16402;DHT22;8310;44.626;11.176;2022-08-01T00:52:21;27.10;40.00
16402;DHT22;8310;44.626;11.176;2022-08-01T00:54:59;27.10;39.90
16402;DHT22;8310;44.626;11.176;2022-08-01T00:57:26;27.10;40.00
16402;DHT22;8310;44.626;11.176;2022-08-01T00:59:55;27.10;40.00
16402;DHT22;8310;44.626;11.176;2022-08-01T01:02:24;27.10;40.20
16402;DHT22;8310;44.626;11.176;2022-08-01T01:04:51;27.10;40.10
16402;DHT22;8310;44.626;11.176;2022-08-01T01:07:28;27.20;40.30
16402;DHT22;8310;44.626;11.176;2022-08-01T01:10:02;27.20;40.30
16402;DHT22;8310;44.626;11.176;2022-08-01T01:12:38;27.20;40.30
16402;DHT22;8310;44.626;11.176;2022-08-01T01:15:13;27.20;40.30
16402;DHT22;8310;44.626;11.176;2022-08-01T01:17:46;27.20;40.30
16402;DHT22;8310;44.626;11.176;2022-08-01T01:20:16;27.20;40.30
16402;DHT22;8310;44.626;11.176;2022-08-01T01:23:02;27.20;40.30
16402;DHT22;8310;44.626;11.176;2022-08-01T01:25:46;27.10;40.20
16402;DHT22;8310;44.626;11.176;2022-08-01T01:28:22;27.10;40.20
16402;DHT22;8310;44.626;11.176;2022-08-01T01:30:57;27.10;40.90
16402;DHT22;8310;44.626;11.176;2022-08-01T01:33:27;27.10;40.30
16402;DHT22;8310;44.626;11.176;2022-08-01T01:36:00;27.00;40.20
16402;DHT22;8310;44.626;11.176;2022-08-01T01:38:37;26.90;39.90
16402;DHT22;8310;44.626;11.176;2022-08-01T01:41:08;26.80;40.40
16402;DHT22;8310;44.626;11.176;2022-08-01T01:43:38;26.70;39.80
16402;DHT22;8310;44.626;11.176;2022-08-01T01:46:10;26.60;39.80
16402;DHT22;8310;44.626;11.176;2022-08-01T01:48:39;26.50;39.90
16402;DHT22;8310;44.626;11.176;2022-08-01T01:51:08;26.40;39.90
16402;DHT22;8310;44.626;11.176;2022-08-01T01:53:37;26.40;40.00
16402;DHT22;8310;44.626;11.176;2022-08-01T01:56:20;26.40;40.10
16402;DHT22;8310;44.626;11.176;2022-08-01T01:58:50;26.50;40.20
16402;DHT22;8310;44.626;11.176;2022-08-01T02:01:21;26.40;40.10
16402;DHT22;8310;44.626;11.176;2022-08-01T02:03:51;26.40;40.10
16402;DHT22;8310;44.626;11.176;2022-08-01T02:06:22;26.40;40.10
16402;DHT22;8310;44.626;11.176;2022-08-01T02:08:53;26.40;40.20
16402;DHT22;8310;44.626;11.176;2022-08-01T02:11:22;26.40;40.30
16402;DHT22;8310;44.626;11.176;2022-08-01T02:13:55;26.40;40.30
16402;DHT22;8310;44.626;11.176;2022-08-01T02:16:28;26.40;40.40
16402;DHT22;8310;44.626;11.176;2022-08-01T02:18:57;26.50;40.50
16402;DHT22;8310;44.626;11.176;2022-08-01T02:21:29;26.50;40.50
16402;DHT22;8310;44.626;11.176;2022-08-01T02:24:01;26.50;40.50
16402;DHT22;8310;44.626;11.176;2022-08-01T02:26:31;26.40;40.90
16402;DHT22;8310;44.626;11.176;2022-08-01T02:29:05;26.40;40.30
16402;DHT22;8310;44.626;11.176;2022-08-01T02:31:39;26.40;40.30
16402;DHT22;8310;44.626;11.176;2022-08-01T02:34:10;26.30;40.50
16402;DHT22;8310;44.626;11.176;2022-08-01T02:36:39;26.30;40.50
16402;DHT22;8310;44.626;11.176;2022-08-01T02:39:09;26.30;40.50
16402;DHT22;8310;44.626;11.176;2022-08-01T02:41:42;26.30;40.50
16402;DHT22;8310;44.626;11.176;2022-08-01T02:44:15;26.30;40.60
16402;DHT22;8310;44.626;11.176;2022-08-01T02:46:49;26.20;40.60
16402;DHT22;8310;44.626;11.176;2022-08-01T02:49:19;26.30;40.70
16402;DHT22;8310;44.626;11.176;2022-08-01T02:51:48;26.20;40.60
16402;DHT22;8310;44.626;11.176;2022-08-01T02:54:18;26.20;40.60
16402;DHT22;8310;44.626;11.176;2022-08-01T02:56:50;26.20;40.60
16402;DHT22;8310;44.626;11.176;2022-08-01T02:59:21;26.20;40.60
16402;DHT22;8310;44.626;11.176;2022-08-01T03:01:54;26.20;40.70
16402;DHT22;8310;44.626;11.176;2022-08-01T03:04:23;26.10;40.70
16402;DHT22;8310;44.626;11.176;2022-08-01T03:06:54;26.10;40.60
16402;DHT22;8310;44.626;11.176;2022-08-01T03:09:25;26.10;40.60
16402;DHT22;8310;44.626;11.176;2022-08-01T03:11:57;26.10;40.70
16402;DHT22;8310;44.626;11.176;2022-08-01T03:14:25;26.00;40.60
16402;DHT22;8310;44.626;11.176;2022-08-01T03:16:55;26.00;40.60
16402;DHT22;8310;44.626;11.176;2022-08-01T03:19:26;26.00;40.60
16402;DHT22;8310;44.626;11.176;2022-08-01T03:21:56;25.90;40.60
16402;DHT22;8310;44.626;11.176;2022-08-01T03:24:26;25.90;40.70
16402;DHT22;8310;44.626;11.176;2022-08-01T03:26:56;25.90;40.70
16402;DHT22;8310;44.626;11.176;2022-08-01T03:29:26;25.90;40.70
16402;DHT22;8310;44.626;11.176;2022-08-01T03:31:57;25.90;40.70
16402;DHT22;8310;44.626;11.176;2022-08-01T03:34:25;25.80;40.70
16402;DHT22;8310;44.626;11.176;2022-08-01T03:37:02;25.80;40.70
16402;DHT22;8310;44.626;11.176;2022-08-01T03:39:34;25.80;40.70
16402;DHT22;8310;44.626;11.176;2022-08-01T03:42:09;25.70;40.50
16402;DHT22;8310;44.626;11.176;2022-08-01T03:44:40;25.70;40.60
16402;DHT22;8310;44.626;11.176;2022-08-01T03:47:11;25.60;40.60
16402;DHT22;8310;44.626;11.176;2022-08-01T03:49:54;25.50;40.60
16402;DHT22;8310;44.626;11.176;2022-08-01T03:52:25;25.40;40.50
16402;DHT22;8310;44.626;11.176;2022-08-01T03:54:55;25.30;40.50
16402;DHT22;8310;44.626;11.176;2022-08-01T03:57:24;25.30;40.50
16402;DHT22;8310;44.626;11.176;2022-08-01T03:59:55;25.20;40.50
16402;DHT22;8310;44.626;11.176;2022-08-01T04:02:25;25.10;40.50
16402;DHT22;8310;44.626;11.176;2022-08-01T04:04:54;25.10;40.50
16402;DHT22;8310;44.626;11.176;2022-08-01T04:07:22;25.10;40.60
16402;DHT22;8310;44.626;11.176;2022-08-01T04:09:50;25.10;40.60
16402;DHT22;8310;44.626;11.176;2022-08-01T04:12:18;25.10;40.70
16402;DHT22;8310;44.626;11.176;2022-08-01T04:14:46;25.10;40.70
16402;DHT22;8310;44.626;11.176;2022-08-01T04:17:29;25.10;40.70
16402;DHT22;8310;44.626;11.176;2022-08-01T04:19:57;25.00;40.50
16402;DHT22;8310;44.626;11.176;2022-08-01T04:22:26;24.90;40.60
16402;DHT22;8310;44.626;11.176;2022-08-01T04:24:56;24.90;40.70
16402;DHT22;8310;44.626;11.176;2022-08-01T04:27:39;24.90;40.80
16402;DHT22;8310;44.626;11.176;2022-08-01T04:30:11;24.80;40.80
16402;DHT22;8310;44.626;11.176;2022-08-01T04:32:42;24.80;40.90
16402;DHT22;8310;44.626;11.176;2022-08-01T04:35:13;24.90;41.00
16402;DHT22;8310;44.626;11.176;2022-08-01T04:37:44;24.90;41.00
16402;DHT22;8310;44.626;11.176;2022-08-01T04:40:14;24.90;41.10
16402;DHT22;8310;44.626;11.176;2022-08-01T04:42:43;24.90;41.10
16402;DHT22;8310;44.626;11.176;2022-08-01T04:45:11;25.00;41.20
16402;DHT22;8310;44.626;11.176;2022-08-01T04:47:42;25.00;41.20
16402;DHT22;8310;44.626;11.176;2022-08-01T04:50:11;25.00;41.30
16402;DHT22;8310;44.626;11.176;2022-08-01T04:52:39;25.00;41.20
16402;DHT22;8310;44.626;11.176;2022-08-01T04:55:08;25.00;41.10
16402;DHT22;8310;44.626;11.176;2022-08-01T04:57:38;25.00;41.20
16402;DHT22;8310;44.626;11.176;2022-08-01T05:00:08;25.00;41.20
16402;DHT22;8310;44.626;11.176;2022-08-01T05:02:36;25.00;41.10
16402;DHT22;8310;44.626;11.176;2022-08-01T05:05:09;25.00;41.20
16402;DHT22;8310;44.626;11.176;2022-08-01T05:07:38;25.00;41.20
16402;DHT22;8310;44.626;11.176;2022-08-01T05:10:06;25.00;41.30
16402;DHT22;8310;44.626;11.176;2022-08-01T05:12:34;25.00;41.40
16402;DHT22;8310;44.626;11.176;2022-08-01T05:15:02;25.00;41.40
16402;DHT22;8310;44.626;11.176;2022-08-01T05:17:32;25.00;41.40
16402;DHT22;8310;44.626;11.176;2022-08-01T05:20:00;25.00;41.40
16402;DHT22;8310;44.626;11.176;2022-08-01T05:22:29;25.00;41.40
16402;DHT22;8310;44.626;11.176;2022-08-01T05:24:57;25.10;41.50
16402;DHT22;8310;44.626;11.176;2022-08-01T05:27:25;25.10;41.60
16402;DHT22;8310;44.626;11.176;2022-08-01T05:29:53;25.10;41.80
16402;DHT22;8310;44.626;11.176;2022-08-01T05:32:20;25.20;41.90
16402;DHT22;8310;44.626;11.176;2022-08-01T05:35:01;25.30;42.10
16402;DHT22;8310;44.626;11.176;2022-08-01T05:37:30;25.40;42.10
16402;DHT22;8310;44.626;11.176;2022-08-01T05:39:58;25.50;42.10
16402;DHT22;8310;44.626;11.176;2022-08-01T05:42:26;25.60;42.20
16402;DHT22;8310;44.626;11.176;2022-08-01T05:44:54;25.70;42.10
16402;DHT22;8310;44.626;11.176;2022-08-01T05:47:21;25.70;42.10
16402;DHT22;8310;44.626;11.176;2022-08-01T05:49:49;25.70;42.20
16402;DHT22;8310;44.626;11.176;2022-08-01T05:52:17;25.80;42.30
16402;DHT22;8310;44.626;11.176;2022-08-01T05:54:47;25.90;42.50
16402;DHT22;8310;44.626;11.176;2022-08-01T05:57:14;26.00;42.50
16402;DHT22;8310;44.626;11.176;2022-08-01T05:59:46;26.10;42.60
16402;DHT22;8310;44.626;11.176;2022-08-01T06:02:14;26.20;42.70
16402;DHT22;8310;44.626;11.176;2022-08-01T06:04:43;26.30;42.80
16402;DHT22;8310;44.626;11.176;2022-08-01T06:07:11;26.40;42.90
16402;DHT22;8310;44.626;11.176;2022-08-01T06:09:39;26.50;42.90
16402;DHT22;8310;44.626;11.176;2022-08-01T06:12:10;26.60;43.00
16402;DHT22;8310;44.626;11.176;2022-08-01T06:14:37;26.70;43.10
16402;DHT22;8310;44.626;11.176;2022-08-01T06:17:10;26.80;43.20
16402;DHT22;8310;44.626;11.176;2022-08-01T06:19:38;26.90;43.20
16402;DHT22;8310;44.626;11.176;2022-08-01T06:22:05;27.00;43.60
16402;DHT22;8310;44.626;11.176;2022-08-01T06:24:33;27.20;43.50
16402;DHT22;8310;44.626;11.176;2022-08-01T06:27:02;27.20;43.50
16402;DHT22;8310;44.626;11.176;2022-08-01T06:29:32;27.40;43.60
16402;DHT22;8310;44.626;11.176;2022-08-01T06:32:00;27.50;43.70
16402;DHT22;8310;44.626;11.176;2022-08-01T06:34:29;27.60;43.70
16402;DHT22;8310;44.626;11.176;2022-08-01T06:36:56;27.70;43.80
16402;DHT22;8310;44.626;11.176;2022-08-01T06:39:24;27.80;43.80
16402;DHT22;8310;44.626;11.176;2022-08-01T06:41:54;27.90;44.00
16402;DHT22;8310;44.626;11.176;2022-08-01T06:44:22;28.00;44.00
16402;DHT22;8310;44.626;11.176;2022-08-01T06:46:52;28.10;44.00
16402;DHT22;8310;44.626;11.176;2022-08-01T06:49:19;28.30;44.00
16402;DHT22;8310;44.626;11.176;2022-08-01T06:51:50;28.40;44.10
16402;DHT22;8310;44.626;11.176;2022-08-01T06:54:18;28.50;44.10
16402;DHT22;8310;44.626;11.176;2022-08-01T06:56:46;28.60;44.20
16402;DHT22;8310;44.626;11.176;2022-08-01T06:59:16;28.70;44.30
16402;DHT22;8310;44.626;11.176;2022-08-01T07:01:44;28.80;44.30
16402;DHT22;8310;44.626;11.176;2022-08-01T07:04:14;28.90;44.30
16402;DHT22;8310;44.626;11.176;2022-08-01T07:06:42;29.00;44.40
16402;DHT22;8310;44.626;11.176;2022-08-01T07:09:10;29.20;44.50
16402;DHT22;8310;44.626;11.176;2022-08-01T07:11:38;29.30;44.50
16402;DHT22;8310;44.626;11.176;2022-08-01T07:14:05;29.40;44.50
16402;DHT22;8310;44.626;11.176;2022-08-01T07:16:33;29.50;44.50
16402;DHT22;8310;44.626;11.176;2022-08-01T07:19:05;29.60;44.60
16402;DHT22;8310;44.626;11.176;2022-08-01T07:21:35;29.80;44.70
16402;DHT22;8310;44.626;11.176;2022-08-01T07:24:03;29.90;44.70
16402;DHT22;8310;44.626;11.176;2022-08-01T07:26:32;30.00;44.70
16402;DHT22;8310;44.626;11.176;2022-08-01T07:28:59;30.10;44.80
16402;DHT22;8310;44.626;11.176;2022-08-01T07:31:30;30.20;44.80
16402;DHT22;8310;44.626;11.176;2022-08-01T07:33:59;30.30;44.80
16402;DHT22;8310;44.626;11.176;2022-08-01T07:36:27;30.40;44.80
16402;DHT22;8310;44.626;11.176;2022-08-01T07:38:56;30.50;44.90
16402;DHT22;8310;44.626;11.176;2022-08-01T07:41:24;30.60;45.00
16402;DHT22;8310;44.626;11.176;2022-08-01T07:43:53;30.70;45.00
16402;DHT22;8310;44.626;11.176;2022-08-01T07:46:20;30.80;45.00
16402;DHT22;8310;44.626;11.176;2022-08-01T07:48:48;30.90;45.10
16402;DHT22;8310;44.626;11.176;2022-08-01T07:51:16;31.00;45.10
16402;DHT22;8310;44.626;11.176;2022-08-01T07:53:48;31.00;45.10
16402;DHT22;8310;44.626;11.176;2022-08-01T07:56:18;31.20;45.20
16402;DHT22;8310;44.626;11.176;2022-08-01T07:58:45;31.30;45.20
16402;DHT22;8310;44.626;11.176;2022-08-01T08:01:17;31.40;45.30
16402;DHT22;8310;44.626;11.176;2022-08-01T08:03:45;31.50;45.30
16402;DHT22;8310;44.626;11.176;2022-08-01T08:06:13;31.60;45.30
16402;DHT22;8310;44.626;11.176;2022-08-01T08:08:40;31.70;45.40
16402;DHT22;8310;44.626;11.176;2022-08-01T08:11:08;31.80;45.30
16402;DHT22;8310;44.626;11.176;2022-08-01T08:13:37;31.90;45.40
16402;DHT22;8310;44.626;11.176;2022-08-01T08:16:05;32.00;45.40
16402;DHT22;8310;44.626;11.176;2022-08-01T08:18:33;32.10;45.40
16402;DHT22;8310;44.626;11.176;2022-08-01T08:21:02;32.20;45.40
16402;DHT22;8310;44.626;11.176;2022-08-01T08:23:29;32.20;45.50
16402;DHT22;8310;44.626;11.176;2022-08-01T08:26:16;32.40;45.60
16402;DHT22;8310;44.626;11.176;2022-08-01T08:28:45;32.50;45.50
16402;DHT22;8310;44.626;11.176;2022-08-01T08:31:12;32.60;45.60
16402;DHT22;8310;44.626;11.176;2022-08-01T08:33:40;32.70;45.60
16402;DHT22;8310;44.626;11.176;2022-08-01T08:36:08;32.80;45.60
16402;DHT22;8310;44.626;11.176;2022-08-01T08:38:37;32.90;45.70
16402;DHT22;8310;44.626;11.176;2022-08-01T08:41:05;33.00;45.70
16402;DHT22;8310;44.626;11.176;2022-08-01T08:43:33;33.10;45.70
16402;DHT22;8310;44.626;11.176;2022-08-01T08:46:05;33.20;45.70
16402;DHT22;8310;44.626;11.176;2022-08-01T08:48:52;33.30;45.70
16402;DHT22;8310;44.626;11.176;2022-08-01T08:51:21;33.40;45.70
16402;DHT22;8310;44.626;11.176;2022-08-01T08:53:51;33.60;45.80
16402;DHT22;8310;44.626;11.176;2022-08-01T08:56:23;33.70;45.70
16402;DHT22;8310;44.626;11.176;2022-08-01T08:58:52;33.70;45.70
16402;DHT22;8310;44.626;11.176;2022-08-01T09:01:23;33.70;45.70
16402;DHT22;8310;44.626;11.176;2022-08-01T09:03:51;33.80;45.70
16402;DHT22;8310;44.626;11.176;2022-08-01T09:06:20;33.90;45.80
16402;DHT22;8310;44.626;11.176;2022-08-01T09:08:47;34.00;45.70
16402;DHT22;8310;44.626;11.176;2022-08-01T09:11:16;34.10;45.90
16402;DHT22;8310;44.626;11.176;2022-08-01T09:14:01;34.30;46.00
16402;DHT22;8310;44.626;11.176;2022-08-01T09:16:31;34.40;45.90
16402;DHT22;8310;44.626;11.176;2022-08-01T09:19:10;34.50;45.90
16402;DHT22;8310;44.626;11.176;2022-08-01T09:21:37;34.60;45.90
16402;DHT22;8310;44.626;11.176;2022-08-01T09:24:15;34.70;46.00
16402;DHT22;8310;44.626;11.176;2022-08-01T09:26:43;34.80;46.10
16402;DHT22;8310;44.626;11.176;2022-08-01T09:29:20;34.90;46.00
16402;DHT22;8310;44.626;11.176;2022-08-01T09:31:50;35.00;46.00
16402;DHT22;8310;44.626;11.176;2022-08-01T09:34:24;35.20;46.10
16402;DHT22;8310;44.626;11.176;2022-08-01T09:36:53;35.30;46.10
16402;DHT22;8310;44.626;11.176;2022-08-01T09:39:23;35.30;45.80
16402;DHT22;8310;44.626;11.176;2022-08-01T09:41:51;35.40;45.90
16402;DHT22;8310;44.626;11.176;2022-08-01T09:44:19;35.50;45.90
16402;DHT22;8310;44.626;11.176;2022-08-01T09:47:05;35.50;45.90
16402;DHT22;8310;44.626;11.176;2022-08-01T09:49:34;35.60;45.80
16402;DHT22;8310;44.626;11.176;2022-08-01T09:52:12;35.60;45.80
16402;DHT22;8310;44.626;11.176;2022-08-01T09:54:42;35.70;46.40
16402;DHT22;8310;44.626;11.176;2022-08-01T09:57:13;35.70;45.70
16402;DHT22;8310;44.626;11.176;2022-08-01T09:59:42;35.80;45.80
16402;DHT22;8310;44.626;11.176;2022-08-01T10:02:13;35.80;45.80
16402;DHT22;8310;44.626;11.176;2022-08-01T10:04:48;35.90;45.70
16402;DHT22;8310;44.626;11.176;2022-08-01T10:07:16;36.00;45.80
16402;DHT22;8310;44.626;11.176;2022-08-01T10:09:45;36.10;45.90
16402;DHT22;8310;44.626;11.176;2022-08-01T10:12:15;36.20;45.90
16402;DHT22;8310;44.626;11.176;2022-08-01T10:14:43;36.40;46.00
16402;DHT22;8310;44.626;11.176;2022-08-01T10:17:15;36.50;45.90
16402;DHT22;8310;44.626;11.176;2022-08-01T10:19:44;36.60;45.90
16402;DHT22;8310;44.626;11.176;2022-08-01T10:22:13;36.60;45.90
16402;DHT22;8310;44.626;11.176;2022-08-01T10:24:43;36.80;46.00
16402;DHT22;8310;44.626;11.176;2022-08-01T10:27:14;36.90;45.80
16402;DHT22;8310;44.626;11.176;2022-08-01T10:29:46;36.90;45.80
16402;DHT22;8310;44.626;11.176;2022-08-01T10:32:16;37.00;45.80
16402;DHT22;8310;44.626;11.176;2022-08-01T10:34:45;37.00;45.60
16402;DHT22;8310;44.626;11.176;2022-08-01T10:37:13;37.10;45.70
16402;DHT22;8310;44.626;11.176;2022-08-01T10:39:41;37.20;45.80
16402;DHT22;8310;44.626;11.176;2022-08-01T10:42:11;37.30;45.80
16402;DHT22;8310;44.626;11.176;2022-08-01T10:44:40;37.50;45.90
16402;DHT22;8310;44.626;11.176;2022-08-01T10:47:10;37.50;45.90
16402;DHT22;8310;44.626;11.176;2022-08-01T10:49:45;37.70;45.80
16402;DHT22;8310;44.626;11.176;2022-08-01T10:52:15;37.80;45.70
16402;DHT22;8310;44.626;11.176;2022-08-01T10:54:43;37.80;45.60
16402;DHT22;8310;44.626;11.176;2022-08-01T10:57:12;37.80;45.60
16402;DHT22;8310;44.626;11.176;2022-08-01T10:59:51;37.90;45.60
16402;DHT22;8310;44.626;11.176;2022-08-01T11:02:26;38.00;45.50
16402;DHT22;8310;44.626;11.176;2022-08-01T11:05:00;38.00;45.40
16402;DHT22;8310;44.626;11.176;2022-08-01T11:07:42;38.10;45.50
16402;DHT22;8310;44.626;11.176;2022-08-01T11:10:19;38.10;45.50
16402;DHT22;8310;44.626;11.176;2022-08-01T11:12:49;38.20;45.50
16402;DHT22;8310;44.626;11.176;2022-08-01T11:15:32;38.30;45.50
16402;DHT22;8310;44.626;11.176;2022-08-01T11:18:04;38.40;45.50
16402;DHT22;8310;44.626;11.176;2022-08-01T11:20:57;38.50;45.40
16402;DHT22;8310;44.626;11.176;2022-08-01T11:23:27;38.40;45.00
16402;DHT22;8310;44.626;11.176;2022-08-01T11:26:09;38.40;45.00
16402;DHT22;8310;44.626;11.176;2022-08-01T11:28:37;38.40;44.90
16402;DHT22;8310;44.626;11.176;2022-08-01T11:31:29;38.40;44.80
16402;DHT22;8310;44.626;11.176;2022-08-01T11:33:56;38.30;44.70
16402;DHT22;8310;44.626;11.176;2022-08-01T11:36:30;38.30;44.90
16402;DHT22;8310;44.626;11.176;2022-08-01T11:39:16;38.30;44.90
16402;DHT22;8310;44.626;11.176;2022-08-01T11:41:45;38.40;44.90
16402;DHT22;8310;44.626;11.176;2022-08-01T11:44:21;38.40;44.90
16402;DHT22;8310;44.626;11.176;2022-08-01T11:46:55;38.50;44.80
16402;DHT22;8310;44.626;11.176;2022-08-01T11:49:54;38.50;44.90
16402;DHT22;8310;44.626;11.176;2022-08-01T11:52:29;38.40;44.40
16402;DHT22;8310;44.626;11.176;2022-08-01T11:55:06;38.40;44.20
16402;DHT22;8310;44.626;11.176;2022-08-01T11:57:34;38.30;44.20
16402;DHT22;8310;44.626;11.176;2022-08-01T12:00:05;38.20;44.10
16402;DHT22;8310;44.626;11.176;2022-08-01T12:02:36;38.20;44.20
16402;DHT22;8310;44.626;11.176;2022-08-01T12:05:06;38.30;44.50
16402;DHT22;8310;44.626;11.176;2022-08-01T12:07:36;38.40;44.60
16402;DHT22;8310;44.626;11.176;2022-08-01T12:10:06;38.60;44.60
16402;DHT22;8310;44.626;11.176;2022-08-01T12:12:35;38.70;44.60
16402;DHT22;8310;44.626;11.176;2022-08-01T12:15:05;38.70;44.60
16402;DHT22;8310;44.626;11.176;2022-08-01T12:17:36;38.80;44.60
16402;DHT22;8310;44.626;11.176;2022-08-01T12:20:06;38.90;44.50
16402;DHT22;8310;44.626;11.176;2022-08-01T12:22:36;39.00;44.50
16402;DHT22;8310;44.626;11.176;2022-08-01T12:25:06;39.00;44.40
16402;DHT22;8310;44.626;11.176;2022-08-01T12:27:35;39.10;44.40
16402;DHT22;8310;44.626;11.176;2022-08-01T12:30:07;39.10;44.30
16402;DHT22;8310;44.626;11.176;2022-08-01T12:32:36;39.10;44.30
16402;DHT22;8310;44.626;11.176;2022-08-01T12:35:06;39.10;44.20
16402;DHT22;8310;44.626;11.176;2022-08-01T12:37:40;39.10;44.00
16402;DHT22;8310;44.626;11.176;2022-08-01T12:40:11;39.10;43.90
16402;DHT22;8310;44.626;11.176;2022-08-01T12:42:40;39.10;44.00
16402;DHT22;8310;44.626;11.176;2022-08-01T12:45:09;39.10;44.00
16402;DHT22;8310;44.626;11.176;2022-08-01T12:47:38;39.20;44.10
16402;DHT22;8310;44.626;11.176;2022-08-01T12:50:08;39.30;44.20
16402;DHT22;8310;44.626;11.176;2022-08-01T12:52:40;39.40;44.30
16402;DHT22;8310;44.626;11.176;2022-08-01T12:55:13;39.50;44.20
16402;DHT22;8310;44.626;11.176;2022-08-01T12:57:43;39.70;44.20
16402;DHT22;8310;44.626;11.176;2022-08-01T13:00:21;39.80;44.20
16402;DHT22;8310;44.626;11.176;2022-08-01T13:02:50;39.80;44.10
16402;DHT22;8310;44.626;11.176;2022-08-01T13:05:27;39.90;44.00
16402;DHT22;8310;44.626;11.176;2022-08-01T13:07:57;39.90;43.90
16402;DHT22;8310;44.626;11.176;2022-08-01T13:10:30;40.00;43.90
16402;DHT22;8310;44.626;11.176;2022-08-01T13:12:58;40.10;43.90
16402;DHT22;8310;44.626;11.176;2022-08-01T13:15:29;40.10;43.70
16402;DHT22;8310;44.626;11.176;2022-08-01T13:17:59;40.20;43.60
16402;DHT22;8310;44.626;11.176;2022-08-01T13:20:31;40.10;43.50
16402;DHT22;8310;44.626;11.176;2022-08-01T13:23:17;40.10;43.40
16402;DHT22;8310;44.626;11.176;2022-08-01T13:25:53;40.20;43.40
16402;DHT22;8310;44.626;11.176;2022-08-01T13:28:23;40.10;43.10
16402;DHT22;8310;44.626;11.176;2022-08-01T13:30:56;40.00;42.90
16402;DHT22;8310;44.626;11.176;2022-08-01T13:33:25;40.00;43.00
16402;DHT22;8310;44.626;11.176;2022-08-01T13:35:55;40.00;43.10
16402;DHT22;8310;44.626;11.176;2022-08-01T13:38:42;40.10;43.20
16402;DHT22;8310;44.626;11.176;2022-08-01T13:41:27;40.10;43.30
16402;DHT22;8310;44.626;11.176;2022-08-01T13:46:31;40.20;43.20
16402;DHT22;8310;44.626;11.176;2022-08-01T13:48:59;40.30;43.10
16402;DHT22;8310;44.626;11.176;2022-08-01T13:51:27;40.30;43.00
16402;DHT22;8310;44.626;11.176;2022-08-01T13:53:56;40.40;42.90
16402;DHT22;8310;44.626;11.176;2022-08-01T13:56:25;40.30;42.90
16402;DHT22;8310;44.626;11.176;2022-08-01T13:58:53;40.30;42.80
16402;DHT22;8310;44.626;11.176;2022-08-01T14:01:20;40.30;42.80
16402;DHT22;8310;44.626;11.176;2022-08-01T14:03:49;40.40;42.90
16402;DHT22;8310;44.626;11.176;2022-08-01T14:06:17;40.40;42.80
16402;DHT22;8310;44.626;11.176;2022-08-01T14:08:47;40.50;42.80
16402;DHT22;8310;44.626;11.176;2022-08-01T14:11:17;40.50;42.70
16402;DHT22;8310;44.626;11.176;2022-08-01T14:13:46;40.50;42.60
16402;DHT22;8310;44.626;11.176;2022-08-01T14:16:14;40.60;42.70
16402;DHT22;8310;44.626;11.176;2022-08-01T14:18:42;40.60;42.60
16402;DHT22;8310;44.626;11.176;2022-08-01T14:21:11;40.70;42.60
16402;DHT22;8310;44.626;11.176;2022-08-01T14:23:39;40.70;42.60
16402;DHT22;8310;44.626;11.176;2022-08-01T14:26:08;40.80;42.20
16402;DHT22;8310;44.626;11.176;2022-08-01T14:28:38;40.60;41.70
16402;DHT22;8310;44.626;11.176;2022-08-01T14:31:05;40.60;41.60
16402;DHT22;8310;44.626;11.176;2022-08-01T14:33:33;40.40;41.40
16402;DHT22;8310;44.626;11.176;2022-08-01T14:36:03;40.20;41.20
16402;DHT22;8310;44.626;11.176;2022-08-01T14:38:31;40.10;41.10
16402;DHT22;8310;44.626;11.176;2022-08-01T14:40:59;40.00;41.30
16402;DHT22;8310;44.626;11.176;2022-08-01T14:43:28;40.00;41.70
16402;DHT22;8310;44.626;11.176;2022-08-01T14:45:59;40.10;41.90
16402;DHT22;8310;44.626;11.176;2022-08-01T14:48:27;40.30;41.90
16402;DHT22;8310;44.626;11.176;2022-08-01T14:50:55;40.40;41.80
16402;DHT22;8310;44.626;11.176;2022-08-01T14:53:24;40.40;41.90
16402;DHT22;8310;44.626;11.176;2022-08-01T14:55:52;40.60;42.00
16402;DHT22;8310;44.626;11.176;2022-08-01T14:58:20;40.60;41.90
16402;DHT22;8310;44.626;11.176;2022-08-01T15:00:48;40.70;41.80
16402;DHT22;8310;44.626;11.176;2022-08-01T15:03:18;40.70;41.40
16402;DHT22;8310;44.626;11.176;2022-08-01T15:05:46;40.70;41.40
16402;DHT22;8310;44.626;11.176;2022-08-01T15:08:14;40.60;41.30
16402;DHT22;8310;44.626;11.176;2022-08-01T15:10:42;40.70;41.40
16402;DHT22;8310;44.626;11.176;2022-08-01T15:13:09;40.60;41.50
16402;DHT22;8310;44.626;11.176;2022-08-01T15:15:36;40.70;41.40
16402;DHT22;8310;44.626;11.176;2022-08-01T15:18:05;40.80;41.50
16402;DHT22;8310;44.626;11.176;2022-08-01T15:20:34;40.80;41.40
16402;DHT22;8310;44.626;11.176;2022-08-01T15:23:01;40.80;41.30
16402;DHT22;8310;44.626;11.176;2022-08-01T15:25:28;40.90;41.30
16402;DHT22;8310;44.626;11.176;2022-08-01T15:27:56;40.90;41.30
16402;DHT22;8310;44.626;11.176;2022-08-01T15:30:24;40.90;41.20
16402;DHT22;8310;44.626;11.176;2022-08-01T15:32:52;40.90;41.10
16402;DHT22;8310;44.626;11.176;2022-08-01T15:35:20;40.90;41.20
16402;DHT22;8310;44.626;11.176;2022-08-01T15:37:50;40.90;40.90
16402;DHT22;8310;44.626;11.176;2022-08-01T15:40:17;40.90;40.70
16402;DHT22;8310;44.626;11.176;2022-08-01T15:42:45;40.80;40.50
16402;DHT22;8310;44.626;11.176;2022-08-01T15:45:15;40.60;40.50
16402;DHT22;8310;44.626;11.176;2022-08-01T15:47:47;40.60;40.70
16402;DHT22;8310;44.626;11.176;2022-08-01T15:50:15;40.60;40.40
16402;DHT22;8310;44.626;11.176;2022-08-01T15:52:43;40.50;40.20
16402;DHT22;8310;44.626;11.176;2022-08-01T15:55:14;40.40;40.30